地図

経路データ

SID SEASON NUMBER BASIN SUBBASIN NAME ISO_TIME NATURE LAT LON WMO_WIND WMO_PRES WMO_AGENCY TRACK_TYPE DIST2LAND LANDFALL IFLAG USA_AGENCY USA_ATCF_ID USA_LAT USA_LON USA_RECORD USA_STATUS USA_WIND USA_PRES USA_SSHS USA_R34_NE USA_R34_SE USA_R34_SW USA_R34_NW USA_R50_NE USA_R50_SE USA_R50_SW USA_R50_NW USA_R64_NE USA_R64_SE USA_R64_SW USA_R64_NW USA_POCI USA_ROCI USA_RMW USA_EYE TOKYO_LAT TOKYO_LON TOKYO_GRADE TOKYO_WIND TOKYO_PRES TOKYO_R50_DIR TOKYO_R50_LONG TOKYO_R50_SHORT TOKYO_R30_DIR TOKYO_R30_LONG TOKYO_R30_SHORT TOKYO_LAND CMA_LAT CMA_LON CMA_CAT CMA_WIND CMA_PRES HKO_LAT HKO_LON HKO_CAT HKO_WIND HKO_PRES NEWDELHI_LAT NEWDELHI_LON NEWDELHI_GRADE NEWDELHI_WIND NEWDELHI_PRES NEWDELHI_CI NEWDELHI_DP NEWDELHI_POCI REUNION_LAT REUNION_LON REUNION_TYPE REUNION_WIND REUNION_PRES REUNION_TNUM REUNION_CI REUNION_RMW REUNION_R34_NE REUNION_R34_SE REUNION_R34_SW REUNION_R34_NW REUNION_R50_NE REUNION_R50_SE REUNION_R50_SW REUNION_R50_NW REUNION_R64_NE REUNION_R64_SE REUNION_R64_SW REUNION_R64_NW BOM_LAT BOM_LON BOM_TYPE BOM_WIND BOM_PRES BOM_TNUM BOM_CI BOM_RMW BOM_R34_NE BOM_R34_SE BOM_R34_SW BOM_R34_NW BOM_R50_NE BOM_R50_SE BOM_R50_SW BOM_R50_NW BOM_R64_NE BOM_R64_SE BOM_R64_SW BOM_R64_NW BOM_ROCI BOM_POCI BOM_EYE BOM_POS_METHOD BOM_PRES_METHOD NADI_LAT NADI_LON NADI_CAT NADI_WIND NADI_PRES WELLINGTON_LAT WELLINGTON_LON WELLINGTON_WIND WELLINGTON_PRES DS824_LAT DS824_LON DS824_STAGE DS824_WIND DS824_PRES TD9636_LAT TD9636_LON TD9636_STAGE TD9636_WIND TD9636_PRES TD9635_LAT TD9635_LON TD9635_WIND TD9635_PRES TD9635_ROCI NEUMANN_LAT NEUMANN_LON NEUMANN_CLASS NEUMANN_WIND NEUMANN_PRES MLC_LAT MLC_LON MLC_CLASS MLC_WIND MLC_PRES USA_GUST BOM_GUST BOM_GUST_PER REUNION_GUST REUNION_GUST_PER USA_SEAHGT USA_SEARAD_NE USA_SEARAD_SE USA_SEARAD_SW USA_SEARAD_NW STORM_SPEED STORM_DIR
1864011S06081 1864 1 SI MM NOT_NAMED 1864-01-11 06:00:00 NR -6.40000 80.9000 main 1378 1378 _____O________ -1 -6.40000 80.9000 99 9.90000 4 245
1864011S06081 1864 1 SI MM NOT_NAMED 1864-01-11 09:00:00 NR -6.49426 80.6979 main 1389 1389 _____P________ -1 -6.49426 80.6979 99 4 245
1864011S06081 1864 1 SI MM NOT_NAMED 1864-01-11 12:00:00 NR -6.58782 80.4972 main 1400 1400 _____P________ -1 -6.58782 80.4972 99 4 245
1864011S06081 1864 1 SI MM NOT_NAMED 1864-01-11 15:00:00 NR -6.68006 80.2992 main 1412 1412 _____P________ -1 -6.68006 80.2992 99 4 245
1864011S06081 1864 1 SI MM NOT_NAMED 1864-01-11 18:00:00 NR -6.77037 80.1053 main 1424 1424 _____P________ -1 -6.77037 80.1053 99 4 245
1864011S06081 1864 1 SI MM NOT_NAMED 1864-01-11 21:00:00 NR -6.85814 79.9171 main 1436 1436 _____P________ -1 -6.85814 79.9171 99 4 245
1864011S06081 1864 1 SI MM NOT_NAMED 1864-01-12 00:00:00 NR -6.94273 79.7358 main 1437 1437 _____P________ -1 -6.94273 79.7358 99 4 245
1864011S06081 1864 1 SI MM NOT_NAMED 1864-01-12 03:00:00 NR -7.02356 79.5630 main 1449 1449 _____P________ -1 -7.02356 79.5630 99 4 245
1864011S06081 1864 1 SI MM NOT_NAMED 1864-01-12 06:00:00 NR -7.10000 79.4000 reunion main 1462 1462 _____O________ -1 -7.10000 79.4000 99 9.90000 3 245
1864011S06081 1864 1 SI MM NOT_NAMED 1864-01-12 09:00:00 NR -7.17169 79.2477 main 1476 1476 _____P________ -1 -7.17169 79.2477 99 3 245
1864011S06081 1864 1 SI MM NOT_NAMED 1864-01-12 12:00:00 NR -7.23919 79.1042 main 1477 1477 _____P________ -1 -7.23919 79.1042 99 3 245
1864011S06081 1864 1 SI MM NOT_NAMED 1864-01-12 15:00:00 NR -7.30328 78.9674 main 1489 1489 _____P________ -1 -7.30328 78.9674 99 3 245
1864011S06081 1864 1 SI MM NOT_NAMED 1864-01-12 18:00:00 NR -7.36475 78.8348 main 1503 1503 _____P________ -1 -7.36475 78.8348 99 3 245
1864011S06081 1864 1 SI MM NOT_NAMED 1864-01-12 21:00:00 NR -7.42438 78.7041 main 1505 1505 _____P________ -1 -7.42438 78.7041 99 3 246
1864011S06081 1864 1 SI MM NOT_NAMED 1864-01-13 00:00:00 NR -7.48295 78.5730 main 1517 1517 _____P________ -1 -7.48295 78.5730 99 3 246
1864011S06081 1864 1 SI MM NOT_NAMED 1864-01-13 03:00:00 NR -7.54123 78.4391 main 1521 1521 _____P________ -1 -7.54123 78.4391 99 3 247
1864011S06081 1864 1 SI MM NOT_NAMED 1864-01-13 06:00:00 NR -7.60000 78.3000 reunion main 1534 1534 _____O________ -1 -7.60000 78.3000 99 9.90000 2 248
1864011S06081 1864 1 SI MM NOT_NAMED 1864-01-13 09:00:00 NR -7.63317 78.2110 main 1536 1536 _____P________ -1 -7.63317 78.2110 99 2 250
1864011S06081 1864 1 SI MM NOT_NAMED 1864-01-13 12:00:00 NR -7.66278 78.1258 main 1549 1549 _____P________ -1 -7.66278 78.1258 99 2 251
1864011S06081 1864 1 SI MM NOT_NAMED 1864-01-13 15:00:00 NR -7.69483 78.0319 main 1551 1551 _____P________ -1 -7.69483 78.0319 99 2 250
1864011S06081 1864 1 SI MM NOT_NAMED 1864-01-13 18:00:00 NR -7.73528 77.9170 main 1553 1553 _____P________ -1 -7.73528 77.9170 99 3 250
1864011S06081 1864 1 SI MM NOT_NAMED 1864-01-13 21:00:00 NR -7.79009 77.7689 main 1566 1566 _____P________ -1 -7.79009 77.7689 99 4 249
1864011S06081 1864 1 SI MM NOT_NAMED 1864-01-14 00:00:00 NR -7.86521 77.5749 main 1581 1581 _____P________ -1 -7.86521 77.5749 99 5 248
1864011S06081 1864 1 SI MM NOT_NAMED 1864-01-14 03:00:00 NR -7.96655 77.3228 main 1600 1600 _____P________ -1 -7.96655 77.3228 99 6 248
1864011S06081 1864 1 SI MM NOT_NAMED 1864-01-14 06:00:00 NR -8.10000 77.0000 reunion main 1618 1618 _____O________ -1 -8.10000 77.0000 99 9.90000 8 247
1864011S06081 1864 1 SI MM NOT_NAMED 1864-01-14 09:00:00 NR -8.27934 76.5633 main 1651 1651 _____P________ -1 -8.27934 76.5633 99 10 247
1864011S06081 1864 1 SI MM NOT_NAMED 1864-01-14 12:00:00 NR -8.49001 76.0538 main 1689 1689 _____P________ -1 -8.49001 76.0538 99 12 247
1864011S06081 1864 1 SI MM NOT_NAMED 1864-01-14 15:00:00 NR -8.72637 75.4863 main 1731 1731 _____P________ -1 -8.72637 75.4863 99 13 247
1864011S06081 1864 1 SI MM NOT_NAMED 1864-01-14 18:00:00 NR -8.98281 74.8755 main 1784 1784 _____P________ -1 -8.98281 74.8755 99 13 247
1864011S06081 1864 1 SI MM NOT_NAMED 1864-01-14 21:00:00 NR -9.25378 74.2365 main 1843 1843 _____P________ -1 -9.25378 74.2365 99 14 247
1864011S06081 1864 1 SI MM NOT_NAMED 1864-01-15 00:00:00 NR -9.53384 73.5843 main 1889 1889 _____P________ -1 -9.53384 73.5843 99 14 246
1864011S06081 1864 1 SI MM NOT_NAMED 1864-01-15 03:00:00 NR -9.81764 72.9338 main 1951 1924 _____P________ -1 -9.81764 72.9338 99 14 246
1864011S06081 1864 1 SI MM NOT_NAMED 1864-01-15 06:00:00 NR -10.1000 72.3000 reunion main 1924 1851 _____O________ -1 -10.1000 72.3000 99 9.90000 13 245
1864011S06081 1864 1 SI MM NOT_NAMED 1864-01-15 09:00:00 NR -10.3751 71.6989 main 1851 1786 _____P________ -1 -10.3751 71.6989 99 13 245
1864011S06081 1864 1 SI MM NOT_NAMED 1864-01-15 12:00:00 NR -10.6546 71.1005 main 1779 1713 _____P________ -1 -10.6546 71.1005 99 13 244
1864011S06081 1864 1 SI MM NOT_NAMED 1864-01-15 15:00:00 NR -10.9345 70.5126 main 1713 1650 _____P________ -1 -10.9345 70.5126 99 13 244
1864011S06081 1864 1 SI MM NOT_NAMED 1864-01-15 18:00:00 NR -11.2108 69.9426 main 1641 1578 _____P________ -1 -11.2108 69.9426 99 12 244
1864011S06081 1864 1 SI MM NOT_NAMED 1864-01-15 21:00:00 NR -11.4794 69.3985 main 1578 1521 _____P________ -1 -11.4794 69.3985 99 12 243
1864011S06081 1864 1 SI MM NOT_NAMED 1864-01-16 00:00:00 NR -11.7364 68.8880 main 1521 1458 _____P________ -1 -11.7364 68.8880 99 11 243
1864011S06081 1864 1 SI MM NOT_NAMED 1864-01-16 03:00:00 NR -11.9779 68.4192 main 1458 1410 _____P________ -1 -11.9779 68.4192 99 10 242
1864011S06081 1864 1 SI MM NOT_NAMED 1864-01-16 06:00:00 NR -12.2000 68.0000 reunion main 1410 1371 _____O________ -1 -12.2000 68.0000 99 9.90000 9 242
1864011S06081 1864 1 SI MM NOT_NAMED 1864-01-16 09:00:00 NR -12.3808 67.6383 main 1363 1331 _____P________ -1 -12.3808 67.6383 99 7 243
1864011S06081 1864 1 SI MM NOT_NAMED 1864-01-16 12:00:00 NR -12.5420 67.3262 main 1331 1299 _____P________ -1 -12.5420 67.3262 99 6 242
1864011S06081 1864 1 SI MM NOT_NAMED 1864-01-16 15:00:00 NR -12.6889 67.0567 main 1299 1268 _____P________ -1 -12.6889 67.0567 99 6 240
1864011S06081 1864 1 SI MM NOT_NAMED 1864-01-16 18:00:00 NR -12.8272 66.8227 main 1268 1237 _____P________ -1 -12.8272 66.8227 99 5 237
1864011S06081 1864 1 SI MM NOT_NAMED 1864-01-16 21:00:00 NR -12.9620 66.6172 main 1237 1213 _____P________ -1 -12.9620 66.6172 99 5 234
1864011S06081 1864 1 SI MM NOT_NAMED 1864-01-17 00:00:00 NR -13.0989 66.4329 main 1213 1197 _____P________ -1 -13.0989 66.4329 99 4 231
1864011S06081 1864 1 SI MM NOT_NAMED 1864-01-17 03:00:00 NR -13.2431 66.2629 main 1197 1166 _____P________ -1 -13.2431 66.2629 99 4 227
1864011S06081 1864 1 SI MM NOT_NAMED 1864-01-17 06:00:00 NR -13.4000 66.1000 reunion main 1166 1135 _____O________ -1 -13.4000 66.1000 99 9.90000 5 227
1864011S06081 1864 1 SI MM NOT_NAMED 1864-01-17 09:00:00 NR -13.5603 65.9128 main 1135 1112 _____P________ -1 -13.5603 65.9128 99 5 227
1864011S06081 1864 1 SI MM NOT_NAMED 1864-01-17 12:00:00 NR -13.7277 65.7387 main 1112 1089 _____P________ -1 -13.7277 65.7387 99 5 223
1864011S06081 1864 1 SI MM NOT_NAMED 1864-01-17 15:00:00 NR -13.9062 65.5748 main 1089 1058 _____P________ -1 -13.9062 65.5748 99 5 220
1864011S06081 1864 1 SI MM NOT_NAMED 1864-01-17 18:00:00 NR -14.0995 65.4180 main 1058 1035 _____P________ -1 -14.0995 65.4180 99 5 217
1864011S06081 1864 1 SI MM NOT_NAMED 1864-01-17 21:00:00 NR -14.3117 65.2652 main 1035 1004 _____P________ -1 -14.3117 65.2652 99 5 214
1864011S06081 1864 1 SI MM NOT_NAMED 1864-01-18 00:00:00 NR -14.5465 65.1133 main 1004 975 _____P________ -1 -14.5465 65.1133 99 6 211
1864011S06081 1864 1 SI MM NOT_NAMED 1864-01-18 03:00:00 NR -14.8080 64.9593 main 975 937 _____P________ -1 -14.8080 64.9593 99 6 209
1864011S06081 1864 1 SI MM NOT_NAMED 1864-01-18 06:00:00 NR -15.1000 64.8000 reunion main 937 900 _____O________ -1 -15.1000 64.8000 99 9.90000 7 208
1864011S06081 1864 1 SI MM NOT_NAMED 1864-01-18 09:00:00 NR -15.4342 64.6090 main 900 856 _____P________ -1 -15.4342 64.6090 99 8 208
1864011S06081 1864 1 SI MM NOT_NAMED 1864-01-18 12:00:00 NR -15.8006 64.4121 main 856 813 _____P________ -1 -15.8006 64.4121 99 9 207
1864011S06081 1864 1 SI MM NOT_NAMED 1864-01-18 15:00:00 NR -16.1925 64.2127 main 813 771 _____P________ -1 -16.1925 64.2127 99 9 205
1864011S06081 1864 1 SI MM NOT_NAMED 1864-01-18 18:00:00 NR -16.6031 64.0142 main 771 730 _____P________ -1 -16.6031 64.0142 99 9 204
1864011S06081 1864 1 SI MM NOT_NAMED 1864-01-18 21:00:00 NR -17.0258 63.8201 main 730 690 _____P________ -1 -17.0258 63.8201 99 9 203
1864011S06081 1864 1 SI MM NOT_NAMED 1864-01-19 00:00:00 NR -17.4539 63.6339 main 685 656 _____P________ -1 -17.4539 63.6339 99 9 202
1864011S06081 1864 1 SI MM NOT_NAMED 1864-01-19 03:00:00 NR -17.8809 63.4594 main 656 618 _____P________ -1 -17.8809 63.4594 99 9 201
1864011S06081 1864 1 SI MM NOT_NAMED 1864-01-19 06:00:00 NR -18.3000 63.3000 reunion main 618 593 _____O________ -1 -18.3000 63.3000 99 9.90000 9 199
1864011S06081 1864 1 SI MM NOT_NAMED 1864-01-19 09:00:00 NR -18.7299 63.1539 main 593 560 _____P________ -1 -18.7299 63.1539 99 9 197
1864011S06081 1864 1 SI MM NOT_NAMED 1864-01-19 12:00:00 NR -19.1613 63.0211 main 557 538 _____P________ -1 -19.1613 63.0211 99 9 196
1864011S06081 1864 1 SI MM NOT_NAMED 1864-01-19 15:00:00 NR -19.5856 62.9014 main 538 522 _____P________ -1 -19.5856 62.9014 99 9 194
1864011S06081 1864 1 SI MM NOT_NAMED 1864-01-19 18:00:00 NR -19.9943 62.7950 main 522 510 _____P________ -1 -19.9943 62.7950 99 8 193
1864011S06081 1864 1 SI MM NOT_NAMED 1864-01-19 21:00:00 NR -20.3788 62.7016 main 510 501 _____P________ -1 -20.3788 62.7016 99 8 193
1864011S06081 1864 1 SI MM NOT_NAMED 1864-01-20 00:00:00 NR -20.7303 62.6213 main 501 501 _____P________ -1 -20.7303 62.6213 99 7 192
1864011S06081 1864 1 SI MM NOT_NAMED 1864-01-20 03:00:00 NR -21.0402 62.5541 main 505 496 _____P________ -1 -21.0402 62.5541 99 6 191
1864011S06081 1864 1 SI MM NOT_NAMED 1864-01-20 06:00:00 NR -21.3000 62.5000 reunion main 501 501 _____O________ -1 -21.3000 62.5000 99 9.90000 5 191
1864011S06081 1864 1 SI MM NOT_NAMED 1864-01-20 09:00:00 NR -21.5036 62.4586 main 506 499 _____P________ -1 -21.5036 62.4586 99 4 191
1864011S06081 1864 1 SI MM NOT_NAMED 1864-01-20 12:00:00 NR -21.6558 62.4288 main 502 502 _____P________ -1 -21.6558 62.4288 99 3 187
1864011S06081 1864 1 SI MM NOT_NAMED 1864-01-20 15:00:00 NR -21.7638 62.4088 main 505 505 _____P________ -1 -21.7638 62.4088 99 2 195
1864011S06081 1864 1 SI MM NOT_NAMED 1864-01-20 18:00:00 NR -21.8351 62.3971 main 505 505 _____P________ -1 -21.8351 62.3971 99 1 0
1864011S06081 1864 1 SI MM NOT_NAMED 1864-01-20 21:00:00 NR -21.8771 62.3920 main 509 509 _____P________ -1 -21.8771 62.3920 99 1 0
1864011S06081 1864 1 SI MM NOT_NAMED 1864-01-21 00:00:00 NR -21.8970 62.3919 main 509 509 _____P________ -1 -21.8970 62.3919 99 0 0
1864011S06081 1864 1 SI MM NOT_NAMED 1864-01-21 03:00:00 NR -21.9021 62.3951 main 509 509 _____P________ -1 -21.9021 62.3951 99 0 0
1864011S06081 1864 1 SI MM NOT_NAMED 1864-01-21 06:00:00 NR -21.9000 62.4000 reunion main 509 _____O________ -1 -21.9000 62.4000 99 9.90000 0 0

IBTrACS Databaseについて

本データベースは、米国NOAAが公開する1842年以降の世界の熱帯低気圧のベストトラックデータアーカイブInternational Best Track Archive for Climate Stewardship (IBTrACS)を、ウェブで閲覧しやすい形式に変換したものです。

最終更新日:2021-10-21